createdAt,value
2023-02-11T00:01:13.118Z,83.13
2023-02-11T00:03:43.793Z,82.38
2023-02-11T00:06:17.151Z,82.08
2023-02-11T00:08:47.970Z,81.56
2023-02-11T00:11:20.095Z,80.83
2023-02-11T00:13:51.272Z,80.56
2023-02-11T00:16:23.503Z,80.23
2023-02-11T00:18:54.430Z,79.86
2023-02-11T00:21:29.408Z,79.78
2023-02-11T00:24:02.462Z,79.18
2023-02-11T00:26:35.390Z,79.08
2023-02-11T00:29:07.386Z,78.73
2023-02-11T00:31:38.058Z,78.37
2023-02-11T00:34:09.253Z,80.82
2023-02-11T00:36:42.712Z,78.85
2023-02-11T00:39:13.552Z,77.43
2023-02-11T00:41:44.171Z,78.83
2023-02-11T00:44:16.599Z,79.14
2023-02-11T00:46:47.630Z,79.08
2023-02-11T00:49:18.746Z,79.10
2023-02-11T00:51:51.944Z,79.28
2023-02-11T00:54:23.879Z,83.85
2023-02-11T00:56:54.479Z,82.58
2023-02-11T00:59:25.201Z,80.50
2023-02-11T01:01:55.823Z,80.31
2023-02-11T01:04:26.709Z,82.92
2023-02-11T01:06:59.824Z,84.62
2023-02-11T01:09:30.385Z,83.39
2023-02-11T01:12:00.945Z,81.69
2023-02-11T01:14:31.637Z,79.68
2023-02-11T01:17:02.132Z,78.38
2023-02-11T01:19:32.772Z,79.28
2023-02-11T01:22:05.904Z,79.99
2023-02-11T01:24:36.540Z,80.60
2023-02-11T01:27:07.321Z,80.78
2023-02-11T01:29:37.886Z,80.76
2023-02-11T01:32:08.779Z,80.87
2023-02-11T01:34:39.433Z,80.66
2023-02-11T01:37:12.759Z,80.85
2023-02-11T01:39:43.280Z,84.75
2023-02-11T01:42:19.163Z,82.91
2023-02-11T01:44:52.499Z,81.07
2023-02-11T01:47:24.064Z,80.17
2023-02-11T01:49:58.885Z,84.72
2023-02-11T01:52:39.871Z,83.94
2023-02-11T01:55:26.472Z,83.02
2023-02-11T01:57:59.990Z,79.86
2023-02-11T02:00:36.844Z,75.37
2023-02-11T02:03:11.351Z,79.86
2023-02-11T02:05:49.044Z,82.50
2023-02-11T02:08:29.773Z,82.21
2023-02-11T02:11:01.264Z,81.32
2023-02-11T02:13:34.508Z,80.90
2023-02-11T02:16:29.267Z,80.82
2023-02-11T02:19:24.592Z,80.13
2023-02-11T02:22:36.864Z,80.03
2023-02-11T02:25:45.377Z,79.61
2023-02-11T02:28:36.713Z,84.67
2023-02-11T02:31:29.024Z,83.44
2023-02-11T02:34:05.456Z,81.90
2023-02-11T02:36:45.648Z,81.38
2023-02-11T02:39:20.520Z,84.94
2023-02-11T02:41:52.918Z,83.99
2023-02-11T02:44:24.395Z,80.75
2023-02-11T02:46:54.972Z,76.29
2023-02-11T02:49:28.243Z,73.74
2023-02-11T02:52:09.928Z,82.03
2023-02-11T02:55:20.995Z,83.10
2023-02-11T02:58:08.840Z,82.38
2023-02-11T03:00:47.139Z,82.00
2023-02-11T03:03:25.402Z,81.29
2023-02-11T03:06:04.501Z,80.89
2023-02-11T03:08:41.221Z,80.52
2023-02-11T03:11:13.346Z,80.23
2023-02-11T03:13:45.660Z,79.72
2023-02-11T03:16:20.808Z,79.03
2023-02-11T03:18:52.831Z,85.47
2023-02-11T03:21:28.046Z,85.02
2023-02-11T03:23:59.772Z,84.54
2023-02-11T03:26:34.368Z,79.97
2023-02-11T03:29:11.975Z,79.71
2023-02-11T03:31:50.728Z,79.51
2023-02-11T03:34:29.841Z,79.37
2023-02-11T03:37:06.809Z,79.42
2023-02-11T03:39:41.988Z,83.28
2023-02-11T03:42:13.968Z,83.70
2023-02-11T03:44:50.062Z,80.38
2023-02-11T03:47:24.253Z,80.81
2023-02-11T03:49:56.564Z,80.67
2023-02-11T03:52:30.991Z,80.48
2023-02-11T03:55:05.642Z,79.99
2023-02-11T03:57:37.060Z,80.39
2023-02-11T04:00:09.667Z,80.08
2023-02-11T04:02:44.403Z,80.51
2023-02-11T04:05:18.012Z,80.68
2023-02-11T04:07:51.217Z,80.83
2023-02-11T04:10:21.902Z,80.44
2023-02-11T04:12:52.665Z,80.74
2023-02-11T04:15:23.366Z,80.96
2023-02-11T04:17:54.324Z,81.31
2023-02-11T04:20:24.982Z,81.43
2023-02-11T04:22:58.408Z,81.62
2023-02-11T04:25:29.507Z,82.15
2023-02-11T04:28:00.119Z,82.17
2023-02-11T04:30:31.083Z,81.83
2023-02-11T04:33:02.235Z,81.71
2023-02-11T04:35:32.812Z,81.59
2023-02-11T04:38:05.924Z,81.48
2023-02-11T04:40:36.498Z,81.92
2023-02-11T04:43:06.943Z,82.30
2023-02-11T04:45:37.992Z,82.44
2023-02-11T04:48:08.842Z,82.34
2023-02-11T04:50:39.428Z,82.03
2023-02-11T04:53:12.581Z,81.85
2023-02-11T04:55:43.216Z,81.78
2023-02-11T04:58:13.675Z,81.81
2023-02-11T05:00:44.294Z,81.79
2023-02-11T05:03:15.202Z,81.63
2023-02-11T05:05:46.271Z,81.64
2023-02-11T05:08:19.469Z,81.52
2023-02-11T05:10:50.789Z,81.74
2023-02-11T05:13:21.197Z,81.74
2023-02-11T05:15:52.253Z,81.41
2023-02-11T05:18:23.004Z,81.63
2023-02-11T05:20:53.680Z,81.57
2023-02-11T05:23:26.828Z,81.52
2023-02-11T05:25:57.395Z,81.28
2023-02-11T05:28:27.867Z,81.19
2023-02-11T05:30:59.041Z,81.31
2023-02-11T05:33:29.573Z,81.30
2023-02-11T05:36:02.446Z,81.23
2023-02-11T05:38:36.110Z,81.20
2023-02-11T05:41:08.022Z,81.21
2023-02-11T05:43:38.559Z,81.36
2023-02-11T05:46:09.397Z,81.61
2023-02-11T05:48:40.135Z,81.38
2023-02-11T05:51:10.932Z,81.42
2023-02-11T05:53:44.209Z,81.75
2023-02-11T05:56:14.816Z,81.76
2023-02-11T05:58:45.362Z,81.82
2023-02-11T06:01:15.937Z,81.93
2023-02-11T06:03:46.596Z,81.93
2023-02-11T06:06:17.262Z,86.47
2023-02-11T06:08:50.497Z,85.72
2023-02-11T06:11:21.442Z,87.86
2023-02-11T06:13:51.965Z,81.80
2023-02-11T06:16:22.742Z,77.62
2023-02-11T06:18:53.382Z,81.06
2023-02-11T06:21:33.525Z,84.68
2023-02-11T06:24:13.498Z,83.86
2023-02-11T06:26:44.265Z,83.31
2023-02-11T06:29:14.734Z,82.25
2023-02-11T06:31:45.696Z,81.84
2023-02-11T06:34:16.533Z,81.06
2023-02-11T06:36:47.181Z,80.71
2023-02-11T06:39:20.387Z,80.02
2023-02-11T06:41:50.909Z,79.62
2023-02-11T06:44:21.345Z,82.86
2023-02-11T06:46:52.059Z,81.70
2023-02-11T06:49:22.713Z,79.00
2023-02-11T06:51:53.425Z,78.04
2023-02-11T06:54:26.623Z,79.97
2023-02-11T06:56:57.360Z,80.42
2023-02-11T06:59:27.862Z,77.50
2023-02-11T07:01:58.530Z,76.29
2023-02-11T07:04:29.055Z,75.61
2023-02-11T07:06:59.752Z,75.59
2023-02-11T07:09:32.990Z,75.47
2023-02-11T07:12:03.601Z,78.82
2023-02-11T07:14:34.171Z,77.87
2023-02-11T07:17:05.165Z,76.46
2023-02-11T07:19:35.789Z,74.14
2023-02-11T07:22:06.487Z,73.77
2023-02-11T07:24:39.655Z,73.30
2023-02-11T07:27:10.321Z,73.29
2023-02-11T07:29:40.839Z,75.04
2023-02-11T07:32:11.678Z,73.72
2023-02-11T07:34:42.381Z,72.17
2023-02-11T07:37:12.987Z,70.65
2023-02-11T07:39:46.313Z,73.01
2023-02-11T07:42:17.096Z,74.37
2023-02-11T07:44:50.245Z,69.37
2023-02-11T07:47:21.241Z,68.57
2023-02-11T07:49:53.926Z,69.87
2023-02-11T07:52:26.040Z,69.74
2023-02-11T07:55:00.140Z,67.69
2023-02-11T07:57:30.754Z,66.87
2023-02-11T08:00:01.230Z,65.70
2023-02-11T08:02:41.383Z,65.77
2023-02-11T08:05:12.102Z,65.13
2023-02-11T08:07:42.651Z,65.08
2023-02-11T08:10:15.877Z,65.22
2023-02-11T08:12:46.494Z,66.24
2023-02-11T08:15:17.456Z,68.01
2023-02-11T08:17:48.230Z,65.09
2023-02-11T08:20:18.812Z,63.62
2023-02-11T08:22:49.599Z,64.07
2023-02-11T08:25:22.828Z,66.14
2023-02-11T08:27:53.552Z,66.90
2023-02-11T08:30:26.382Z,63.99
2023-02-11T08:32:58.123Z,63.04
2023-02-11T08:35:28.673Z,62.18
2023-02-11T08:37:59.535Z,61.70
2023-02-11T08:40:32.984Z,62.84
2023-02-11T08:43:05.223Z,65.24
2023-02-11T08:45:37.448Z,66.23
2023-02-11T08:48:08.196Z,64.36
2023-02-11T08:50:39.121Z,63.93
2023-02-11T08:53:09.841Z,64.84
2023-02-11T08:55:42.919Z,64.78
2023-02-11T08:58:13.517Z,64.51
2023-02-11T09:00:45.594Z,63.19
2023-02-11T09:03:16.744Z,60.88
2023-02-11T09:05:48.247Z,62.31
2023-02-11T09:08:19.516Z,63.72
2023-02-11T09:10:52.873Z,64.27
2023-02-11T09:13:23.656Z,58.89
2023-02-11T09:15:54.320Z,57.13
2023-02-11T09:18:24.966Z,55.80
2023-02-11T09:20:55.576Z,56.08
2023-02-11T09:23:26.224Z,57.38
2023-02-11T09:25:59.278Z,58.68
2023-02-11T09:28:29.924Z,56.52
2023-02-11T09:31:00.608Z,55.69
2023-02-11T09:33:31.338Z,57.05
2023-02-11T09:36:03.920Z,56.25
2023-02-11T09:38:34.789Z,55.10
2023-02-11T09:41:08.791Z,57.28
2023-02-11T09:43:46.708Z,57.60
2023-02-11T09:46:20.688Z,58.59
2023-02-11T09:48:53.928Z,60.35
2023-02-11T09:51:36.758Z,59.75
2023-02-11T09:54:14.904Z,55.42
2023-02-11T09:56:48.130Z,55.13
2023-02-11T09:59:20.445Z,55.95
2023-02-11T10:01:54.003Z,56.45
2023-02-11T10:04:42.705Z,55.37
2023-02-11T10:07:23.204Z,56.20
2023-02-11T10:10:06.402Z,55.08
2023-02-11T10:12:54.347Z,55.72
2023-02-11T10:15:32.152Z,56.05
2023-02-11T10:18:19.573Z,54.66
2023-02-11T10:21:01.813Z,55.77
2023-02-11T10:23:38.039Z,55.46
2023-02-11T10:26:15.900Z,54.38
2023-02-11T10:28:51.607Z,55.05
2023-02-11T10:31:30.256Z,53.84
2023-02-11T10:34:06.286Z,53.03
2023-02-11T10:36:39.822Z,53.31
2023-02-11T10:39:21.561Z,53.35
2023-02-11T10:41:55.685Z,51.92
2023-02-11T10:44:34.179Z,50.11
2023-02-11T10:47:08.579Z,50.11
2023-02-11T10:49:43.451Z,49.51
2023-02-11T10:52:21.662Z,49.39
2023-02-11T10:55:02.961Z,48.46
2023-02-11T10:57:40.163Z,49.23
2023-02-11T11:00:39.326Z,47.73
2023-02-11T11:03:26.034Z,46.65
2023-02-11T11:05:59.940Z,44.24
2023-02-11T11:08:42.898Z,44.45
2023-02-11T11:11:15.124Z,44.51
2023-02-11T11:13:58.581Z,47.23
2023-02-11T11:16:33.310Z,47.08
2023-02-11T11:19:23.261Z,45.02
2023-02-11T11:21:55.611Z,44.82
2023-02-11T11:24:30.279Z,45.90
2023-02-11T11:27:03.970Z,47.09
2023-02-11T11:29:37.839Z,47.42
2023-02-11T11:32:19.480Z,47.80
2023-02-11T11:34:54.270Z,46.62
2023-02-11T11:37:29.396Z,48.28
2023-02-11T11:40:03.462Z,49.06
2023-02-11T11:42:36.697Z,50.09
2023-02-11T11:45:26.032Z,48.18
2023-02-11T11:48:02.792Z,47.75
2023-02-11T11:50:38.923Z,47.24
2023-02-11T11:53:17.034Z,46.35
2023-02-11T11:55:51.480Z,47.18
2023-02-11T11:58:24.350Z,46.52
2023-02-11T12:01:01.906Z,42.21
2023-02-11T12:04:09.186Z,43.88
2023-02-11T12:06:48.814Z,45.71
2023-02-11T12:09:27.992Z,46.21
2023-02-11T12:12:15.795Z,44.82
2023-02-11T12:14:57.708Z,44.02
2023-02-11T12:17:47.582Z,44.51
2023-02-11T12:20:34.576Z,45.76
2023-02-11T12:23:24.014Z,43.18
2023-02-11T12:26:02.253Z,44.49
2023-02-11T12:28:42.050Z,40.43
2023-02-11T12:31:22.406Z,42.52
2023-02-11T12:34:10.698Z,40.48
2023-02-11T12:36:57.549Z,40.13
2023-02-11T12:39:43.334Z,39.63
2023-02-11T12:42:49.442Z,41.95
2023-02-11T12:45:29.695Z,40.43
2023-02-11T12:48:25.716Z,41.31
2023-02-11T12:51:04.765Z,41.61
2023-02-11T12:54:06.847Z,41.22
2023-02-11T12:56:43.295Z,41.40
2023-02-11T12:59:20.392Z,43.17
2023-02-11T13:01:54.362Z,42.28
2023-02-11T13:04:31.599Z,43.63
2023-02-11T13:07:08.738Z,43.96
2023-02-11T13:09:47.028Z,43.54
2023-02-11T13:12:31.192Z,43.93
2023-02-11T13:15:06.588Z,44.88
2023-02-11T13:17:47.134Z,42.89
2023-02-11T13:20:27.770Z,43.15
2023-02-11T13:23:04.020Z,44.90
2023-02-11T13:25:44.795Z,44.30
2023-02-11T13:28:36.819Z,44.33
2023-02-11T13:31:08.965Z,44.28
2023-02-11T13:33:43.280Z,45.50
2023-02-11T13:36:17.905Z,47.42
2023-02-11T13:38:57.701Z,48.60
2023-02-11T13:41:36.966Z,50.42
2023-02-11T13:44:22.697Z,51.18
2023-02-11T13:46:57.468Z,53.37
2023-02-11T13:49:32.110Z,52.45
2023-02-11T13:52:04.577Z,50.66
2023-02-11T13:54:40.429Z,50.94
2023-02-11T13:57:33.252Z,53.90
2023-02-11T14:00:06.354Z,53.58
2023-02-11T14:02:52.329Z,54.11
2023-02-11T14:05:46.567Z,53.17
2023-02-11T14:08:39.896Z,53.45
2023-02-11T14:11:27.656Z,56.12
2023-02-11T14:14:24.095Z,56.16
2023-02-11T14:17:23.876Z,54.60
2023-02-11T14:19:54.708Z,56.25
2023-02-11T14:22:28.993Z,58.11
2023-02-11T14:25:02.433Z,61.33
2023-02-11T14:27:41.569Z,63.14
2023-02-11T14:30:35.258Z,64.20
2023-02-11T14:33:22.774Z,65.56
2023-02-11T14:36:06.010Z,66.54
2023-02-11T14:38:45.632Z,68.14
2023-02-11T14:41:22.756Z,69.52
2023-02-11T14:43:55.815Z,69.18
2023-02-11T14:46:30.993Z,68.56
2023-02-11T14:49:04.591Z,68.49
2023-02-11T14:51:39.239Z,68.90
2023-02-11T14:54:17.128Z,69.28
2023-02-11T14:56:48.250Z,69.21
2023-02-11T14:59:22.176Z,70.13
2023-02-11T15:01:57.376Z,70.49
2023-02-11T15:04:31.098Z,72.10
2023-02-11T15:07:06.629Z,72.59
2023-02-11T15:09:40.333Z,74.20
2023-02-11T15:12:20.501Z,75.95
2023-02-11T15:14:53.718Z,76.40
2023-02-11T15:17:29.236Z,75.62
2023-02-11T15:20:01.217Z,76.45
2023-02-11T15:22:37.033Z,81.19
2023-02-11T15:25:16.512Z,78.84
2023-02-11T15:27:48.594Z,75.23
2023-02-11T15:30:29.965Z,71.01
2023-02-11T15:33:06.257Z,72.03
2023-02-11T15:35:41.275Z,73.19
2023-02-11T15:38:16.104Z,73.95
2023-02-11T15:40:56.053Z,74.63
2023-02-11T15:43:26.444Z,76.41
2023-02-11T15:46:03.285Z,77.42
2023-02-11T15:48:40.991Z,78.40
2023-02-11T15:51:22.155Z,77.62
2023-02-11T15:53:57.173Z,78.24
2023-02-11T15:56:34.657Z,86.34
2023-02-11T15:59:19.236Z,83.96
2023-02-11T16:01:51.711Z,80.76
2023-02-11T16:04:27.582Z,83.37
2023-02-11T16:06:59.278Z,80.78
2023-02-11T16:09:36.089Z,79.25
2023-02-11T16:12:09.778Z,78.06
2023-02-11T16:14:40.312Z,77.18
2023-02-11T16:17:14.349Z,76.31
2023-02-11T16:19:51.710Z,75.79
2023-02-11T16:22:25.965Z,74.94
2023-02-11T16:25:00.376Z,74.45
2023-02-11T16:27:36.574Z,73.63
2023-02-11T16:30:08.078Z,73.13
2023-02-11T16:32:38.739Z,72.34
2023-02-11T16:35:15.434Z,71.71
2023-02-11T16:37:45.906Z,71.09
2023-02-11T16:40:17.222Z,70.98
2023-02-11T16:42:47.785Z,70.59
2023-02-11T16:45:18.864Z,70.49
2023-02-11T16:47:49.551Z,70.47
2023-02-11T16:53:44.581Z,70.02
2023-02-11T16:56:19.432Z,69.80
2023-02-11T16:58:49.912Z,70.37
2023-02-11T17:01:20.499Z,66.86
2023-02-11T17:03:51.721Z,67.67
2023-02-11T17:06:24.472Z,69.75
2023-02-11T17:08:57.611Z,71.62
2023-02-11T17:11:28.417Z,73.81
2023-02-11T17:13:58.910Z,75.54
2023-02-11T17:16:30.125Z,77.30
2023-02-11T17:19:00.867Z,78.87
2023-02-11T17:21:32.293Z,83.48
2023-02-11T17:24:05.528Z,83.08
2023-02-11T17:26:37.120Z,82.53
2023-02-11T17:29:08.447Z,82.21
2023-02-11T17:31:39.755Z,81.90
2023-02-11T17:34:10.795Z,80.84
2023-02-11T17:36:41.587Z,80.32
2023-02-11T17:39:15.494Z,78.87
2023-02-11T17:41:46.087Z,83.24
2023-02-11T17:44:17.195Z,83.79
2023-02-11T17:46:47.930Z,74.42
2023-02-11T17:49:18.492Z,73.05
2023-02-11T17:51:49.953Z,73.52
2023-02-11T17:54:23.565Z,73.88
2023-02-11T17:56:57.813Z,76.47
2023-02-11T17:59:31.872Z,77.64
2023-02-11T18:02:02.526Z,77.82
2023-02-11T18:04:33.352Z,79.10
2023-02-11T18:07:04.739Z,79.27
2023-02-11T18:09:39.938Z,79.51
2023-02-11T18:12:11.446Z,80.93
2023-02-11T18:14:42.598Z,82.41
2023-02-11T18:17:13.532Z,83.13
2023-02-11T18:19:44.348Z,83.56
2023-02-11T18:22:15.449Z,83.51
2023-02-11T18:24:49.162Z,81.99
2023-02-11T18:27:19.920Z,88.89
2023-02-11T18:29:50.778Z,87.34
2023-02-11T18:32:21.431Z,86.35
2023-02-11T18:34:51.920Z,85.03
2023-02-11T18:37:22.557Z,84.22
2023-02-11T18:39:55.988Z,83.22
2023-02-11T18:42:26.596Z,82.07
2023-02-11T18:44:57.244Z,81.53
2023-02-11T18:47:27.921Z,80.92
2023-02-11T18:49:58.431Z,82.25
2023-02-11T18:52:29.037Z,84.56
2023-02-11T18:55:02.213Z,82.56
2023-02-11T18:57:33.838Z,80.56
2023-02-11T19:00:04.427Z,80.04
2023-02-11T19:02:35.412Z,80.13
2023-02-11T19:05:06.681Z,81.12
2023-02-11T19:07:37.407Z,80.06
2023-02-11T19:10:11.565Z,80.41
2023-02-11T19:12:43.477Z,79.86
2023-02-11T19:15:14.488Z,79.99
2023-02-11T19:17:45.203Z,84.40
2023-02-11T19:20:15.803Z,84.94
2023-02-11T19:22:47.369Z,84.18
2023-02-11T19:25:20.605Z,83.49
2023-02-11T19:27:51.245Z,83.61
2023-02-11T19:30:22.159Z,83.45
2023-02-11T19:32:56.134Z,87.21
2023-02-11T19:35:27.366Z,86.14
2023-02-11T19:37:58.029Z,84.74
2023-02-11T19:40:31.220Z,84.36
2023-02-11T19:43:01.981Z,86.08
2023-02-11T19:45:32.488Z,84.04
2023-02-11T19:48:03.077Z,84.24
2023-02-11T19:50:33.728Z,84.86
2023-02-11T19:53:05.241Z,82.44
2023-02-11T19:55:40.424Z,81.47
2023-02-11T19:58:11.197Z,79.85
2023-02-11T20:00:42.201Z,85.55
2023-02-11T20:03:13.264Z,84.09
2023-02-11T20:05:47.371Z,80.86
2023-02-11T20:08:18.793Z,80.50
2023-02-11T20:10:51.977Z,79.77
2023-02-11T20:13:23.210Z,79.74
2023-02-11T20:15:54.057Z,78.79
2023-02-11T20:18:25.111Z,81.12
2023-02-11T20:20:55.689Z,82.12
2023-02-11T20:23:26.238Z,82.40
2023-02-11T20:25:59.539Z,82.38
2023-02-11T20:28:30.304Z,82.90
2023-02-11T20:31:01.194Z,84.61
2023-02-11T20:33:32.881Z,82.20
2023-02-11T20:36:05.314Z,80.46
2023-02-11T20:38:36.071Z,80.32
2023-02-11T20:41:14.007Z,85.28
2023-02-11T20:43:46.158Z,83.93
2023-02-11T20:46:18.350Z,80.55
2023-02-11T20:48:49.415Z,79.49
2023-02-11T20:51:23.437Z,78.78
2023-02-11T20:53:55.100Z,78.70
2023-02-11T20:56:30.337Z,78.83
2023-02-11T20:59:02.371Z,80.52
2023-02-11T21:01:35.422Z,84.18
2023-02-11T21:04:08.467Z,82.32
2023-02-11T21:06:41.382Z,80.25
2023-02-11T21:09:13.913Z,80.08
2023-02-11T21:11:46.987Z,80.40
2023-02-11T21:14:18.591Z,80.15
2023-02-11T21:16:49.414Z,81.50
2023-02-11T21:19:21.446Z,82.56
2023-02-11T21:21:52.199Z,82.26
2023-02-11T21:24:23.174Z,82.73
2023-02-11T21:26:56.358Z,82.70
2023-02-11T21:29:26.992Z,82.61
2023-02-11T21:31:57.633Z,82.97
2023-02-11T21:34:28.310Z,82.98
2023-02-11T21:36:58.881Z,82.62
2023-02-11T21:39:29.529Z,82.69
2023-02-11T21:42:02.721Z,82.54
2023-02-11T21:44:33.685Z,82.61
2023-02-11T21:47:04.530Z,82.80
2023-02-11T21:49:35.126Z,83.68
2023-02-11T21:52:05.606Z,84.65
2023-02-11T21:54:36.280Z,81.82
2023-02-11T21:57:09.489Z,80.29
2023-02-11T21:59:40.059Z,81.16
2023-02-11T22:02:11.619Z,84.24
2023-02-11T22:04:42.810Z,83.76
2023-02-11T22:07:13.368Z,79.83
2023-02-11T22:09:44.842Z,79.64
2023-02-11T22:12:18.123Z,79.21
2023-02-11T22:14:48.692Z,79.38
2023-02-11T22:17:19.216Z,79.85
2023-02-11T22:19:49.809Z,81.59
2023-02-11T22:22:21.427Z,81.97
2023-02-11T22:24:52.144Z,82.02
2023-02-11T22:27:25.787Z,81.91
2023-02-11T22:29:56.305Z,82.28
2023-02-11T22:32:27.066Z,82.02
2023-02-11T22:34:57.694Z,82.41
2023-02-11T22:37:28.275Z,82.30
2023-02-11T22:39:58.866Z,82.20
2023-02-11T22:42:32.017Z,82.37
2023-02-11T22:45:03.310Z,82.21
2023-02-11T22:47:36.496Z,82.23
2023-02-11T22:50:08.105Z,82.30
2023-02-11T22:52:39.472Z,82.20
2023-02-11T22:55:10.648Z,82.38
2023-02-11T22:57:45.359Z,82.05
2023-02-11T23:00:17.777Z,82.47
2023-02-11T23:02:49.100Z,82.17
2023-02-11T23:05:20.091Z,82.66
2023-02-11T23:07:50.638Z,82.75
2023-02-11T23:10:22.461Z,82.37
2023-02-11T23:12:56.549Z,82.91
2023-02-11T23:15:27.492Z,83.15
2023-02-11T23:17:58.210Z,83.50
2023-02-11T23:20:29.068Z,83.63
2023-02-11T23:22:59.640Z,83.97
2023-02-11T23:25:30.651Z,84.80
2023-02-11T23:28:04.086Z,82.13
2023-02-11T23:30:35.448Z,80.85
2023-02-11T23:33:06.394Z,83.72
2023-02-11T23:35:37.440Z,85.45
2023-02-11T23:38:08.450Z,84.43
2023-02-11T23:40:39.106Z,78.37
2023-02-11T23:43:12.491Z,77.52
2023-02-11T23:45:43.088Z,80.10
2023-02-11T23:48:13.919Z,82.45
2023-02-11T23:50:45.029Z,85.46
2023-02-11T23:53:15.877Z,83.00
2023-02-11T23:55:47.757Z,82.78
2023-02-11T23:58:20.924Z,82.92
